createdAt,value
2022-08-03T00:01:27.086Z,99948.94
2022-08-03T00:03:53.778Z,99943.94
2022-08-03T00:06:20.418Z,99943.72
2022-08-03T00:08:47.075Z,99946.59
2022-08-03T00:11:13.731Z,99947.41
2022-08-03T00:13:40.368Z,99943.94
2022-08-03T00:16:07.110Z,99945.06
2022-08-03T00:18:33.782Z,99935.03
2022-08-03T00:21:00.443Z,99941.31
2022-08-03T00:23:30.517Z,99937.41
2022-08-03T00:26:14.788Z,99929.06
2022-08-03T00:28:41.925Z,99936.41
2022-08-03T00:31:08.569Z,99936.44
2022-08-03T00:33:59.239Z,99934.56
2022-08-03T00:36:26.918Z,99933.97
2022-08-03T00:38:53.557Z,99936.44
2022-08-03T00:41:20.206Z,99937.06
2022-08-03T00:44:15.015Z,99936.38
2022-08-03T00:46:41.686Z,99924.75
2022-08-03T00:49:08.389Z,99926.50
2022-08-03T00:51:35.176Z,99934.81
2022-08-03T00:54:01.806Z,99931.09
2022-08-03T00:56:28.506Z,99934.63
2022-08-03T00:58:57.651Z,99933.66
2022-08-03T01:01:26.644Z,99934.91
2022-08-03T01:03:59.127Z,99929.91
2022-08-03T01:06:32.425Z,99938.31
2022-08-03T01:09:09.903Z,99932.72
2022-08-03T01:12:00.232Z,99935.69
2022-08-03T01:14:33.148Z,99930.88
2022-08-03T01:17:06.860Z,99934.00
2022-08-03T01:19:39.875Z,99935.22
2022-08-03T01:22:52.835Z,99926.34
2022-08-03T01:25:31.265Z,99934.19
2022-08-03T01:28:08.104Z,99919.03
2022-08-03T01:30:36.742Z,99917.81
2022-08-03T01:33:15.079Z,99922.56
2022-08-03T01:35:44.983Z,99918.59
2022-08-03T01:38:15.552Z,99919.47
2022-08-03T01:40:44.803Z,99917.56
2022-08-03T01:43:15.296Z,99906.16
2022-08-03T01:46:02.842Z,99910.72
2022-08-03T01:49:22.944Z,99907.25
2022-08-03T01:51:57.924Z,99907.19
2022-08-03T01:54:36.743Z,99901.41
2022-08-03T01:57:04.144Z,99905.38
2022-08-03T01:59:33.794Z,99909.91
2022-08-03T02:02:15.325Z,99907.59
2022-08-03T02:04:48.157Z,99895.31
2022-08-03T02:07:15.617Z,99899.94
2022-08-03T02:09:44.506Z,99903.50
2022-08-03T02:12:12.300Z,99906.00
2022-08-03T02:14:41.038Z,99906.00
2022-08-03T02:17:08.131Z,99901.22
2022-08-03T02:19:36.971Z,99904.16
2022-08-03T02:22:05.434Z,99908.94
2022-08-03T02:24:32.252Z,99906.25
2022-08-03T02:27:00.033Z,99906.25
2022-08-03T02:29:40.050Z,99908.31
2022-08-03T02:32:11.794Z,99911.06
2022-08-03T02:34:42.344Z,99907.53
2022-08-03T02:37:10.636Z,99902.53
2022-08-03T02:39:37.813Z,99907.94
2022-08-03T02:42:06.419Z,99910.00
2022-08-03T02:44:33.595Z,99903.13
2022-08-03T02:47:03.820Z,99902.31
2022-08-03T02:49:40.995Z,99906.09
2022-08-03T02:52:18.033Z,99900.25
2022-08-03T02:54:46.338Z,99891.09
2022-08-03T02:57:14.017Z,99899.44
2022-08-03T02:59:42.730Z,99901.94
2022-08-03T03:02:10.184Z,99897.34
2022-08-03T03:04:36.974Z,99894.03
2022-08-03T03:07:04.368Z,99898.00
2022-08-03T03:09:40.269Z,99896.94
2022-08-03T03:12:10.138Z,99897.53
2022-08-03T03:14:37.385Z,99893.19
2022-08-03T03:17:09.818Z,99885.69
2022-08-03T03:19:39.672Z,99888.81
2022-08-03T03:22:07.766Z,99892.78
2022-08-03T03:24:36.044Z,99900.88
2022-08-03T03:27:05.694Z,99895.50
2022-08-03T03:29:39.462Z,99900.69
2022-08-03T03:32:08.441Z,99900.88
2022-08-03T03:34:39.340Z,99894.88
2022-08-03T03:37:08.570Z,99890.72
2022-08-03T03:39:36.424Z,99894.47
2022-08-03T03:42:06.226Z,99889.88
2022-08-03T03:44:38.100Z,99891.53
2022-08-03T03:47:05.094Z,99890.09
2022-08-03T03:49:32.459Z,99892.97
2022-08-03T03:51:59.171Z,99887.19
2022-08-03T03:54:29.255Z,99884.88
2022-08-03T03:56:56.286Z,99889.44
2022-08-03T03:59:22.955Z,99893.81
2022-08-03T04:01:58.964Z,99891.75
2022-08-03T04:04:44.643Z,99896.53
2022-08-03T04:07:30.091Z,99894.84
2022-08-03T04:10:15.736Z,99895.06
2022-08-03T04:12:49.876Z,99900.47
2022-08-03T04:15:19.979Z,99903.19
2022-08-03T04:17:49.398Z,99895.28
2022-08-03T04:20:18.389Z,99901.50
2022-08-03T04:22:46.391Z,99902.56
2022-08-03T04:25:18.014Z,99905.03
2022-08-03T04:27:46.711Z,99914.41
2022-08-03T04:30:33.766Z,99905.47
2022-08-03T04:33:01.325Z,99897.44
2022-08-03T04:36:01.292Z,99902.84
2022-08-03T04:38:29.184Z,99900.16
2022-08-03T04:40:56.586Z,99914.41
2022-08-03T04:48:15.311Z,99908.06
2022-08-03T04:50:42.906Z,99907.81
2022-08-03T04:53:09.586Z,99913.06
2022-08-03T04:55:36.584Z,99921.81
2022-08-03T04:58:03.796Z,99917.69
2022-08-03T05:05:01.880Z,99912.94
2022-08-03T05:07:34.162Z,99916.47
2022-08-03T05:10:16.139Z,99910.44
2022-08-03T05:13:12.908Z,99918.34
2022-08-03T05:15:43.050Z,99917.94
2022-08-03T05:18:13.890Z,99915.44
2022-08-03T05:20:41.287Z,99921.66
2022-08-03T05:23:07.987Z,99927.50
2022-08-03T05:25:34.660Z,99919.38
2022-08-03T05:28:03.675Z,99917.50
2022-08-03T05:30:33.807Z,99922.06
2022-08-03T05:33:03.002Z,99919.97
2022-08-03T05:36:00.631Z,99917.06
2022-08-03T05:42:46.654Z,99927.84
2022-08-03T05:45:17.856Z,99919.75
2022-08-03T05:47:45.394Z,99925.16
2022-08-03T05:50:13.014Z,99921.78
2022-08-03T05:52:40.573Z,99920.09
2022-08-03T05:55:08.094Z,99917.41
2022-08-03T05:57:35.339Z,99916.38
2022-08-03T06:00:07.021Z,99920.56
2022-08-03T06:02:38.987Z,99928.44
2022-08-03T06:05:06.270Z,99920.91
2022-08-03T06:07:33.134Z,99928.63
2022-08-03T06:10:36.784Z,99921.91
2022-08-03T06:12:51.231Z,99923.53
2022-08-03T06:15:20.627Z,99929.19
2022-08-03T06:17:51.418Z,99921.38
2022-08-03T06:20:19.718Z,99926.16
2022-08-03T06:22:51.362Z,99922.59
2022-08-03T06:25:27.261Z,99918.81
2022-08-03T06:27:53.955Z,99921.44
2022-08-03T06:30:21.463Z,99926.81
2022-08-03T06:32:52.086Z,99926.22
2022-08-03T06:35:19.538Z,99924.28
2022-08-03T06:37:49.699Z,99919.25
2022-08-03T06:40:28.963Z,99919.91
2022-08-03T06:42:56.528Z,99925.66
2022-08-03T06:45:23.242Z,99923.72
2022-08-03T06:48:05.121Z,99915.81
2022-08-03T06:50:34.216Z,99917.03
2022-08-03T06:53:01.729Z,99911.63
2022-08-03T06:55:28.735Z,99923.06
2022-08-03T06:57:55.772Z,99922.41
2022-08-03T07:00:27.936Z,99929.28
2022-08-03T07:02:58.051Z,99926.13
2022-08-03T07:05:25.077Z,99921.88
2022-08-03T07:07:55.597Z,99921.22
2022-08-03T07:10:22.226Z,99924.94
2022-08-03T07:12:55.883Z,99925.94
2022-08-03T07:15:53.864Z,99927.38
2022-08-03T07:18:10.139Z,99927.75
2022-08-03T07:20:36.917Z,99915.63
2022-08-03T07:23:03.625Z,99913.72
2022-08-03T07:25:30.346Z,99916.00
2022-08-03T07:27:56.994Z,99917.00
2022-08-03T07:30:24.997Z,99917.81
2022-08-03T07:32:51.662Z,99911.31
2022-08-03T07:35:24.278Z,99914.16
2022-08-03T07:37:54.634Z,99921.41
2022-08-03T07:40:22.417Z,99910.94
2022-08-03T07:42:52.037Z,99907.75
2022-08-03T07:45:21.314Z,99915.22
2022-08-03T07:47:53.555Z,99912.06
2022-08-03T07:50:20.805Z,99908.06
2022-08-03T07:52:49.415Z,99912.81
2022-08-03T07:55:17.118Z,99911.91
2022-08-03T07:57:43.907Z,99910.59
2022-08-03T08:00:19.023Z,99904.34
2022-08-03T08:02:46.254Z,99904.28
2022-08-03T08:05:14.986Z,99903.81
2022-08-03T08:07:42.089Z,99902.28
2022-08-03T08:10:10.053Z,99902.22
2022-08-03T08:12:38.702Z,99906.16
2022-08-03T08:15:06.079Z,99904.41
2022-08-03T08:17:43.402Z,99897.91
2022-08-03T08:20:12.568Z,99899.25
2022-08-03T08:22:39.365Z,99899.38
2022-08-03T08:25:07.457Z,99893.47
2022-08-03T08:28:31.452Z,99896.34
2022-08-03T08:30:22.423Z,99897.28
2022-08-03T08:32:49.875Z,99901.22
2022-08-03T08:35:17.877Z,99899.91
2022-08-03T08:37:51.229Z,99894.25
2022-08-03T08:40:20.862Z,99892.09
2022-08-03T08:42:58.094Z,99891.66
2022-08-03T08:45:25.518Z,99892.84
2022-08-03T08:47:59.896Z,99895.09
2022-08-03T08:50:28.621Z,99889.78
2022-08-03T08:53:00.466Z,99887.44
2022-08-03T08:55:29.869Z,99886.75
2022-08-03T08:58:20.799Z,99882.28
2022-08-03T09:00:48.475Z,99882.63
2022-08-03T09:03:29.262Z,99884.84
2022-08-03T09:05:56.615Z,99881.44
2022-08-03T09:08:23.331Z,99875.88
2022-08-03T09:10:50.023Z,99877.53
2022-08-03T09:13:16.885Z,99879.31
2022-08-03T09:16:01.105Z,99872.31
2022-08-03T09:18:30.504Z,99871.88
2022-08-03T09:21:30.247Z,99869.38
2022-08-03T09:24:04.115Z,99871.72
2022-08-03T09:26:33.424Z,99871.84
2022-08-03T09:29:14.934Z,99866.66
2022-08-03T09:31:45.039Z,99863.78
2022-08-03T09:34:17.084Z,99863.31
2022-08-03T09:36:50.622Z,99866.88
2022-08-03T09:39:42.017Z,99867.56
2022-08-03T09:42:17.518Z,99862.09
2022-08-03T09:44:50.125Z,99857.88
2022-08-03T09:47:36.589Z,99860.38
2022-08-03T09:50:06.320Z,99861.03
2022-08-03T09:52:48.307Z,99857.00
2022-08-03T09:56:33.029Z,99859.00
2022-08-03T09:58:09.106Z,99857.72
2022-08-03T10:00:56.479Z,99857.97
2022-08-03T10:03:24.264Z,99850.00
2022-08-03T10:05:53.835Z,99850.09
2022-08-03T10:08:23.279Z,99849.59
2022-08-03T10:10:54.054Z,99839.28
2022-08-03T10:13:22.507Z,99838.22
2022-08-03T10:16:24.146Z,99836.09
2022-08-03T10:18:36.524Z,99831.22
2022-08-03T10:21:04.871Z,99827.41
2022-08-03T10:23:35.386Z,99822.56
2022-08-03T10:26:04.138Z,99832.22
2022-08-03T10:28:57.071Z,99824.56
2022-08-03T10:31:24.090Z,99825.78
2022-08-03T10:33:53.084Z,99817.16
2022-08-03T10:36:24.242Z,99807.28
2022-08-03T10:38:56.569Z,99806.59
2022-08-03T10:41:27.167Z,99813.47
2022-08-03T10:43:59.410Z,99809.91
2022-08-03T10:46:27.238Z,99797.41
2022-08-03T10:48:54.440Z,99794.47
2022-08-03T10:51:21.606Z,99810.09
2022-08-03T10:53:55.416Z,99800.00
2022-08-03T10:56:53.424Z,99797.28
2022-08-03T10:59:46.702Z,99786.59
2022-08-03T11:02:15.278Z,99787.03
2022-08-03T11:04:42.760Z,99790.66
2022-08-03T11:07:25.452Z,99784.38
2022-08-03T11:09:56.205Z,99790.50
2022-08-03T11:12:30.077Z,99789.75
2022-08-03T11:15:05.013Z,99799.59
2022-08-03T11:17:33.948Z,99791.72
2022-08-03T11:20:13.658Z,99784.63
2022-08-03T11:22:54.395Z,99781.91
2022-08-03T11:25:53.345Z,99783.88
2022-08-03T11:28:30.528Z,99788.50
2022-08-03T11:30:57.602Z,99778.50
2022-08-03T11:33:30.882Z,99771.97
2022-08-03T11:36:03.490Z,99762.22
2022-08-03T11:38:30.521Z,99764.44
2022-08-03T11:40:57.279Z,99769.41
2022-08-03T11:43:31.387Z,99765.13
2022-08-03T11:46:28.476Z,99764.53
2022-08-03T11:49:09.489Z,99756.94
2022-08-03T11:51:38.662Z,99756.44
2022-08-03T11:54:06.400Z,99757.81
2022-08-03T11:56:47.075Z,99750.69
2022-08-03T11:59:18.396Z,99753.25
2022-08-03T12:01:47.648Z,99746.47
2022-08-03T12:04:16.152Z,99748.94
2022-08-03T12:06:58.247Z,99742.91
2022-08-03T12:09:24.911Z,99743.56
2022-08-03T12:11:59.911Z,99743.88
2022-08-03T12:14:48.333Z,99746.94
2022-08-03T12:17:15.215Z,99749.38
2022-08-03T12:19:44.852Z,99732.78
2022-08-03T12:22:11.502Z,99731.16
2022-08-03T12:24:46.909Z,99736.38
2022-08-03T12:27:24.302Z,99725.47
2022-08-03T12:29:58.660Z,99732.06
2022-08-03T12:32:26.861Z,99728.25
2022-08-03T12:35:00.178Z,99717.56
2022-08-03T12:37:27.474Z,99720.63
2022-08-03T12:40:02.236Z,99720.38
2022-08-03T12:42:32.114Z,99724.81
2022-08-03T12:44:58.767Z,99725.13
2022-08-03T12:47:25.442Z,99717.34
2022-08-03T12:49:53.664Z,99724.19
2022-08-03T12:52:22.413Z,99715.47
2022-08-03T12:54:56.638Z,99717.13
2022-08-03T12:57:23.844Z,99716.34
2022-08-03T12:59:53.324Z,99714.25
2022-08-03T13:02:25.901Z,99707.69
2022-08-03T13:04:54.106Z,99713.19
2022-08-03T13:07:22.045Z,99711.28
2022-08-03T13:09:51.256Z,99709.94
2022-08-03T13:13:11.733Z,99704.19
2022-08-03T13:15:39.619Z,99703.72
2022-08-03T13:18:16.753Z,99704.28
2022-08-03T13:20:44.374Z,99700.47
2022-08-03T13:23:15.544Z,99699.69
2022-08-03T13:25:55.862Z,99706.53
2022-08-03T13:28:23.191Z,99705.47
2022-08-03T13:30:49.899Z,99698.66
2022-08-03T13:33:16.716Z,99696.50
2022-08-03T13:35:43.354Z,99694.88
2022-08-03T13:38:10.074Z,99699.00
2022-08-03T13:40:41.289Z,99696.84
2022-08-03T13:43:08.505Z,99688.13
2022-08-03T13:45:35.219Z,99688.69
2022-08-03T13:48:01.943Z,99688.44
2022-08-03T13:50:29.899Z,99686.81
2022-08-03T13:52:58.050Z,99686.28
2022-08-03T13:55:25.530Z,99679.22
2022-08-03T13:58:02.296Z,99674.03
2022-08-03T14:00:33.583Z,99679.50
2022-08-03T14:03:12.787Z,99670.47
2022-08-03T14:05:41.389Z,99662.03
2022-08-03T14:08:08.192Z,99663.41
2022-08-03T14:10:36.664Z,99661.78
2022-08-03T14:13:04.247Z,99660.19
2022-08-03T14:15:31.386Z,99659.63
2022-08-03T14:17:58.493Z,99651.44
2022-08-03T14:20:38.084Z,99653.91
2022-08-03T14:23:07.174Z,99648.16
2022-08-03T14:25:44.463Z,99647.91
2022-08-03T14:28:19.226Z,99638.34
2022-08-03T14:30:46.099Z,99640.28
2022-08-03T14:33:12.748Z,99639.75
2022-08-03T14:35:39.639Z,99640.88
2022-08-03T14:38:06.459Z,99640.94
2022-08-03T14:40:33.193Z,99628.34
2022-08-03T14:42:59.871Z,99637.94
2022-08-03T14:45:26.511Z,99634.69
2022-08-03T14:50:28.786Z,99641.53
2022-08-03T14:51:30.694Z,99638.53
2022-08-03T14:53:58.559Z,99633.38
2022-08-03T14:56:25.199Z,99632.53
2022-08-03T14:58:51.918Z,99632.03
2022-08-03T15:02:02.239Z,99625.19
2022-08-03T15:04:06.297Z,99622.16
2022-08-03T15:06:32.963Z,99621.91
2022-08-03T15:09:21.543Z,99624.09
2022-08-03T15:11:46.301Z,99620.81
2022-08-03T15:14:13.507Z,99615.91
2022-08-03T15:16:41.468Z,99615.66
2022-08-03T15:20:03.743Z,99616.47
2022-08-03T15:21:56.847Z,99617.28
2022-08-03T15:24:27.604Z,99616.72
2022-08-03T15:26:54.244Z,99608.81
2022-08-03T15:30:07.153Z,99601.41
2022-08-03T15:32:09.599Z,99604.41
2022-08-03T15:34:37.571Z,99602.78
2022-08-03T15:37:15.154Z,99600.59
2022-08-03T15:39:59.158Z,99603.34
2022-08-03T15:42:30.807Z,99592.09
2022-08-03T15:44:57.539Z,99584.69
2022-08-03T15:47:24.439Z,99590.16
2022-08-03T15:49:51.121Z,99592.38
2022-08-03T15:52:17.750Z,99598.69
2022-08-03T15:54:44.414Z,99589.66
2022-08-03T15:57:12.130Z,99584.44
2022-08-03T15:59:38.912Z,99580.56
2022-08-03T16:02:05.647Z,99576.75
2022-08-03T16:04:32.302Z,99583.31
2022-08-03T16:06:58.978Z,99581.66
2022-08-03T16:09:42.839Z,99567.97
2022-08-03T16:12:16.078Z,99574.56
2022-08-03T16:14:52.478Z,99570.69
2022-08-03T16:17:20.565Z,99573.41
2022-08-03T16:19:47.467Z,99572.31
2022-08-03T16:22:14.487Z,99568.19
2022-08-03T16:24:42.327Z,99561.63
2022-08-03T16:27:36.744Z,99564.63
2022-08-03T16:29:55.733Z,99570.06
2022-08-03T16:32:22.414Z,99567.63
2022-08-03T16:34:49.150Z,99556.13
2022-08-03T16:37:37.691Z,99557.19
2022-08-03T16:40:03.757Z,99560.22
2022-08-03T16:42:30.437Z,99554.19
2022-08-03T16:44:57.078Z,99559.66
2022-08-03T16:47:25.737Z,99552.53
2022-08-03T16:49:55.126Z,99559.66
2022-08-03T16:52:23.694Z,99556.38
2022-08-03T16:54:53.630Z,99554.69
2022-08-03T16:57:55.936Z,99553.84
2022-08-03T17:00:11.806Z,99556.06
2022-08-03T17:02:43.077Z,99550.03
2022-08-03T17:05:15.287Z,99557.41
2022-08-03T17:07:46.965Z,99562.88
2022-08-03T17:10:21.988Z,99559.31
2022-08-03T17:12:53.962Z,99545.63
2022-08-03T17:15:58.145Z,99553.00
2022-08-03T17:18:15.122Z,99556.03
2022-08-03T17:20:42.614Z,99553.31
2022-08-03T17:23:34.029Z,99557.66
2022-08-03T17:26:04.105Z,99554.66
2022-08-03T17:28:48.843Z,99558.19
2022-08-03T17:31:22.920Z,99556.84
2022-08-03T17:33:57.636Z,99552.44
2022-08-03T17:36:41.831Z,99557.09
2022-08-03T17:39:17.185Z,99561.75
2022-08-03T17:41:50.228Z,99560.94
2022-08-03T17:44:35.052Z,99562.84
2022-08-03T17:47:04.997Z,99556.81
2022-08-03T17:49:33.457Z,99565.84
2022-08-03T17:52:17.812Z,99561.16
2022-08-03T17:55:56.629Z,99568.56
2022-08-03T17:58:03.283Z,99566.38
2022-08-03T18:00:51.779Z,99571.31
2022-08-03T18:03:28.435Z,99569.13
2022-08-03T18:07:15.641Z,99568.00
2022-08-03T18:10:03.770Z,99574.84
2022-08-03T18:12:40.219Z,99571.28
2022-08-03T18:15:13.298Z,99577.84
2022-08-03T18:17:55.787Z,99574.56
2022-08-03T18:20:32.360Z,99574.56
2022-08-03T18:23:04.638Z,99580.03
2022-08-03T18:25:45.162Z,99574.00
2022-08-03T18:28:14.501Z,99579.72
2022-08-03T18:30:54.600Z,99577.53
2022-08-03T18:34:18.615Z,99583.53
2022-08-03T18:36:21.677Z,99582.16
2022-08-03T18:38:51.708Z,99576.94
2022-08-03T18:41:32.231Z,99578.03
2022-08-03T18:44:46.496Z,99579.38
2022-08-03T18:47:51.821Z,99580.16
2022-08-03T18:50:19.170Z,99576.09
2022-08-03T18:52:53.266Z,99581.28
2022-08-03T18:55:35.295Z,99582.28
2022-08-03T18:58:17.814Z,99580.63
2022-08-03T19:00:54.658Z,99581.72
2022-08-03T19:03:43.047Z,99584.69
2022-08-03T19:06:23.556Z,99584.94
2022-08-03T19:09:04.460Z,99581.66
2022-08-03T19:12:11.255Z,99584.38
2022-08-03T19:14:28.424Z,99590.06
2022-08-03T19:17:09.801Z,99583.72
2022-08-03T19:19:43.984Z,99590.06
2022-08-03T19:22:16.374Z,99599.63
2022-08-03T19:24:45.674Z,99595.75
2022-08-03T19:27:13.192Z,99605.03
2022-08-03T19:29:58.906Z,99599.50
2022-08-03T19:32:30.201Z,99603.28
2022-08-03T19:34:59.434Z,99603.28
2022-08-03T19:37:33.295Z,99604.59
2022-08-03T19:40:12.533Z,99606.22
2022-08-03T19:42:42.688Z,99617.72
2022-08-03T19:49:57.666Z,99613.84
2022-08-03T19:57:00.278Z,99614.94
2022-08-03T19:59:29.574Z,99616.56
2022-08-03T20:06:40.110Z,99610.16
2022-08-03T20:09:09.213Z,99611.59
2022-08-03T20:11:44.927Z,99616.97
2022-08-03T20:14:20.555Z,99614.75
2022-08-03T20:16:52.857Z,99615.25
2022-08-03T20:19:19.998Z,99615.53
2022-08-03T20:21:48.198Z,99611.13
2022-08-03T20:24:24.230Z,99617.38
2022-08-03T20:26:57.789Z,99617.59
2022-08-03T20:30:06.526Z,99614.63
2022-08-03T20:32:34.935Z,99616.97
2022-08-03T20:35:01.630Z,99618.63
2022-08-03T20:37:30.492Z,99620.50
2022-08-03T20:39:57.881Z,99624.34
2022-08-03T20:42:24.704Z,99616.91
2022-08-03T20:45:05.290Z,99616.13
2022-08-03T20:47:50.291Z,99618.25
2022-08-03T20:50:17.731Z,99617.41
2022-08-03T20:52:49.773Z,99616.28
2022-08-03T20:59:51.449Z,99619.41
2022-08-03T21:02:28.917Z,99616.91
2022-08-03T21:05:03.342Z,99618.31
2022-08-03T21:08:05.464Z,99617.75
2022-08-03T21:10:29.587Z,99618.59
2022-08-03T21:13:17.754Z,99615.31
2022-08-03T21:16:06.860Z,99617.59
2022-08-03T21:18:54.398Z,99619.88
2022-08-03T21:21:50.915Z,99617.72
2022-08-03T21:24:19.169Z,99619.56
2022-08-03T21:26:47.425Z,99623.63
2022-08-03T21:29:16.899Z,99620.97
2022-08-03T21:31:43.593Z,99624.56
2022-08-03T21:34:10.283Z,99623.16
2022-08-03T21:36:37.641Z,99619.81
2022-08-03T21:39:08.315Z,99618.66
2022-08-03T21:41:36.798Z,99619.44
2022-08-03T21:44:04.313Z,99616.09
2022-08-03T21:46:35.898Z,99619.22
2022-08-03T21:50:02.630Z,99621.66
2022-08-03T21:51:52.309Z,99633.88
2022-08-03T21:54:21.518Z,99615.25
2022-08-03T21:56:50.979Z,99627.28
2022-08-03T21:59:19.755Z,99620.13
2022-08-03T22:06:19.877Z,99617.09
2022-08-03T22:08:47.526Z,99628.81
2022-08-03T22:11:14.233Z,99615.91
2022-08-03T22:13:43.603Z,99621.03
2022-08-03T22:16:12.102Z,99618.81
2022-08-03T22:18:41.867Z,99625.59
2022-08-03T22:21:10.335Z,99625.41
2022-08-03T22:23:45.816Z,99624.66
2022-08-03T22:26:34.880Z,99622.94
2022-08-03T22:29:06.816Z,99625.91
2022-08-03T22:31:58.513Z,99630.88
2022-08-03T22:34:26.267Z,99627.16
2022-08-03T22:36:57.132Z,99630.16
2022-08-03T22:39:27.844Z,99633.78
2022-08-03T22:41:56.627Z,99634.09
2022-08-03T22:44:23.409Z,99626.50
2022-08-03T22:46:50.320Z,99636.25
2022-08-03T22:49:18.355Z,99647.16
2022-08-03T22:51:45.047Z,99638.97
2022-08-03T22:54:12.902Z,99644.59
2022-08-03T22:56:39.762Z,99648.63
2022-08-03T22:59:39.153Z,99654.63
2022-08-03T23:01:56.671Z,99643.44
2022-08-03T23:04:24.572Z,99647.84
2022-08-03T23:06:51.726Z,99642.63
2022-08-03T23:09:21.191Z,99650.94
2022-08-03T23:11:48.373Z,99647.88
2022-08-03T23:14:17.099Z,99645.38
2022-08-03T23:16:45.614Z,99653.31
2022-08-03T23:19:17.448Z,99643.84
2022-08-03T23:22:02.976Z,99645.66
2022-08-03T23:24:33.803Z,99640.31
2022-08-03T23:27:03.689Z,99651.91
2022-08-03T23:29:31.103Z,99644.34
2022-08-03T23:31:58.451Z,99642.94
2022-08-03T23:34:44.851Z,99646.47
2022-08-03T23:37:13.553Z,99647.19
2022-08-03T23:39:40.461Z,99650.94
2022-08-03T23:42:07.348Z,99647.56
2022-08-03T23:44:34.606Z,99646.47
2022-08-03T23:47:01.318Z,99649.19
2022-08-03T23:49:27.971Z,99648.03
2022-08-03T23:52:03.479Z,99645.97
2022-08-03T23:54:47.422Z,99648.31
2022-08-03T23:57:38.643Z,99645.69
